Time;durP1;ratioP1;P1;durP2;ratioP2;P2;SDS_P1;SDS_P2;PMS_P1;PMS_P2;Temp;Humidity;BMP_temperature;BMP_pressure;BME280_temperature;BME280_humidity;BME280_pressure;Samples;Min_cycle;Max_cycle;Signal;HPM_P1;HPM_P2
2023/04/02 00:01:37;;;;;;;;;;;19.20;35.10;;;;;;5098957;28;19923;-58
2023/04/02 00:04:07;;;;;;;;;;;19.20;35.10;;;;;;5096545;28;19928;-58
2023/04/02 00:06:39;;;;;;;;;;;19.20;35.10;;;;;;5097362;28;20408;-58
2023/04/02 00:09:20;;;;;;;;;;;19.20;35.00;;;;;;5115781;28;19923;-58
2023/04/02 00:11:49;;;;;;;;;;;19.20;35.00;;;;;;5110426;28;19923;-58
2023/04/02 00:14:16;;;;;;;;;;;19.20;34.90;;;;;;5100163;28;19937;-58
2023/04/02 00:16:43;;;;;;;;;;;19.20;35.00;;;;;;5115370;28;19968;-58
2023/04/02 00:19:13;;;;;;;;;;;19.20;34.90;;;;;;5098709;28;19992;-58
2023/04/02 00:21:40;;;;;;;;;;;19.20;34.90;;;;;;5100796;27;19931;-58
2023/04/02 00:24:08;;;;;;;;;;;19.20;34.80;;;;;;5118721;27;19924;-58
2023/04/02 00:26:36;;;;;;;;;;;19.10;34.80;;;;;;5100944;28;19980;-58
2023/04/02 00:29:05;;;;;;;;;;;19.10;34.80;;;;;;5121357;27;19923;-58
2023/04/02 00:31:32;;;;;;;;;;;19.10;34.70;;;;;;5118382;27;19966;-58
2023/04/02 00:34:00;;;;;;;;;;;19.10;34.60;;;;;;5122504;27;19924;-58
2023/04/02 00:36:28;;;;;;;;;;;19.10;34.60;;;;;;5098331;28;19988;-58
2023/04/02 00:38:56;;;;;;;;;;;19.10;34.60;;;;;;5105676;27;19989;-58
2023/04/02 00:41:25;;;;;;;;;;;19.10;34.60;;;;;;5099668;27;19968;-58
2023/04/02 00:43:53;;;;;;;;;;;19.10;34.50;;;;;;5097899;27;19926;-58
2023/04/02 00:46:22;;;;;;;;;;;19.10;34.40;;;;;;5099556;27;19924;-58
2023/04/02 00:48:50;;;;;;;;;;;19.10;34.40;;;;;;5118648;27;19979;-58
2023/04/02 00:51:18;;;;;;;;;;;19.10;34.50;;;;;;5100400;27;19977;-58
2023/04/02 00:53:45;;;;;;;;;;;19.10;34.50;;;;;;5117559;27;19919;-58
2023/04/02 00:56:13;;;;;;;;;;;19.10;34.40;;;;;;5120513;27;19919;-58
2023/04/02 00:58:40;;;;;;;;;;;19.10;34.30;;;;;;5121666;27;19985;-58
2023/04/02 01:01:15;;;;;;;;;;;19.00;34.20;;;;;;5102583;27;20309;-58
2023/04/02 01:03:43;;;;;;;;;;;19.00;34.10;;;;;;5123401;27;19919;-58
2023/04/02 01:06:11;;;;;;;;;;;19.00;34.10;;;;;;5101340;27;19926;-58
2023/04/02 01:08:44;;;;;;;;;;;19.00;34.10;;;;;;5118715;27;19923;-58
2023/04/02 01:11:14;;;;;;;;;;;19.00;34.10;;;;;;5104658;27;19976;-58
2023/04/02 01:13:42;;;;;;;;;;;19.00;34.20;;;;;;5103549;27;19928;-58
2023/04/02 01:16:10;;;;;;;;;;;19.00;34.20;;;;;;5098831;27;19923;-58
2023/04/02 01:18:40;;;;;;;;;;;19.00;34.20;;;;;;5104570;27;19938;-58
2023/04/02 01:21:24;;;;;;;;;;;19.00;34.10;;;;;;5103057;27;19920;-58
2023/04/02 01:24:00;;;;;;;;;;;19.00;34.10;;;;;;5099799;28;19920;-58
2023/04/02 01:26:34;;;;;;;;;;;19.00;34.10;;;;;;5113760;27;19923;-58
2023/04/02 01:29:03;;;;;;;;;;;19.00;34.00;;;;;;5118093;27;19927;-58
2023/04/02 01:31:31;;;;;;;;;;;19.00;34.00;;;;;;5103774;27;19923;-58
2023/04/02 01:33:58;;;;;;;;;;;19.00;34.00;;;;;;5104965;27;19928;-58
2023/04/02 01:36:27;;;;;;;;;;;19.00;34.00;;;;;;5101906;27;19963;-58
2023/04/02 01:38:56;;;;;;;;;;;19.00;34.00;;;;;;5119203;27;19959;-58
2023/04/02 01:41:25;;;;;;;;;;;19.00;34.00;;;;;;5099887;27;19919;-58
2023/04/02 01:43:53;;;;;;;;;;;19.00;34.00;;;;;;5106333;27;19919;-58
2023/04/02 01:46:28;;;;;;;;;;;18.90;33.80;;;;;;5097014;27;19963;-58
2023/04/02 01:48:55;;;;;;;;;;;18.90;33.80;;;;;;5100755;27;19973;-58
2023/04/02 01:51:26;;;;;;;;;;;18.90;33.80;;;;;;5102645;27;20417;-58
2023/04/02 01:53:53;;;;;;;;;;;18.90;33.80;;;;;;5121708;27;19919;-58
2023/04/02 01:56:20;;;;;;;;;;;18.90;33.90;;;;;;5100268;27;19927;-58
2023/04/02 01:58:48;;;;;;;;;;;18.90;33.80;;;;;;5120237;27;20468;-58
2023/04/02 02:01:15;;;;;;;;;;;18.90;33.80;;;;;;5100977;27;19951;-58
2023/04/02 02:03:43;;;;;;;;;;;18.90;33.80;;;;;;5102055;27;19980;-58
2023/04/02 02:06:11;;;;;;;;;;;18.90;33.80;;;;;;5101178;27;19980;-58
2023/04/02 02:08:38;;;;;;;;;;;18.90;33.70;;;;;;5103149;28;19946;-58
2023/04/02 02:11:05;;;;;;;;;;;18.90;33.70;;;;;;5113769;27;19939;-58
2023/04/02 02:13:32;;;;;;;;;;;18.90;33.80;;;;;;5118700;27;19924;-58
2023/04/02 02:15:59;;;;;;;;;;;18.90;33.80;;;;;;5100438;27;19931;-59
2023/04/02 02:18:26;;;;;;;;;;;18.90;33.70;;;;;;5101848;27;20315;-59
2023/04/02 02:20:54;;;;;;;;;;;18.90;33.70;;;;;;5097691;27;19928;-59
2023/04/02 02:23:21;;;;;;;;;;;18.90;33.70;;;;;;5115925;27;19964;-59
2023/04/02 02:25:47;;;;;;;;;;;18.90;33.70;;;;;;5117859;27;19924;-59
2023/04/02 02:28:15;;;;;;;;;;;18.90;33.70;;;;;;5101959;27;19930;-59
2023/04/02 02:30:42;;;;;;;;;;;18.90;33.70;;;;;;5102881;27;20335;-59
2023/04/02 02:33:13;;;;;;;;;;;18.90;33.80;;;;;;5099166;27;19939;-59
2023/04/02 02:35:41;;;;;;;;;;;18.80;33.70;;;;;;5101904;27;19973;-59
2023/04/02 02:38:21;;;;;;;;;;;18.90;33.70;;;;;;5119836;27;20292;-59
2023/04/02 02:40:48;;;;;;;;;;;18.90;34.30;;;;;;5101688;27;19938;-59
2023/04/02 02:43:15;;;;;;;;;;;18.90;33.60;;;;;;5098001;28;19931;-59
2023/04/02 02:45:42;;;;;;;;;;;18.80;33.40;;;;;;5101249;27;19931;-59
2023/04/02 02:48:10;;;;;;;;;;;18.80;33.30;;;;;;5097078;27;19919;-59
2023/04/02 02:50:37;;;;;;;;;;;18.80;33.30;;;;;;5101585;27;19958;-59
2023/04/02 02:53:04;;;;;;;;;;;18.80;33.30;;;;;;5097236;28;19970;-59
2023/04/02 02:55:33;;;;;;;;;;;18.80;33.40;;;;;;5098974;27;20006;-60
2023/04/02 02:58:00;;;;;;;;;;;18.80;33.30;;;;;;5103168;27;19932;-60
2023/04/02 03:00:27;;;;;;;;;;;18.80;33.30;;;;;;5099733;27;19945;-59
2023/04/02 03:02:54;;;;;;;;;;;18.80;33.30;;;;;;5095294;27;19927;-59
2023/04/02 03:05:22;;;;;;;;;;;18.80;33.30;;;;;;5102043;27;19926;-59
2023/04/02 03:07:48;;;;;;;;;;;18.80;33.20;;;;;;5115143;27;20316;-59
2023/04/02 03:10:16;;;;;;;;;;;18.80;33.20;;;;;;5097511;27;19939;-59
2023/04/02 03:12:45;;;;;;;;;;;18.80;33.20;;;;;;5118472;27;19923;-58
2023/04/02 03:15:14;;;;;;;;;;;18.80;33.20;;;;;;5116537;27;19930;-59
2023/04/02 03:17:41;;;;;;;;;;;18.80;33.10;;;;;;5115566;27;19919;-59
2023/04/02 03:20:10;;;;;;;;;;;18.80;33.10;;;;;;5100880;27;19972;-59
2023/04/02 03:22:38;;;;;;;;;;;18.80;33.10;;;;;;5102830;27;19945;-62
2023/04/02 03:25:05;;;;;;;;;;;18.80;33.70;;;;;;5096217;27;19931;-61
2023/04/02 03:27:32;;;;;;;;;;;18.80;33.20;;;;;;5102113;27;20094;-61
2023/04/02 03:30:04;;;;;;;;;;;18.80;33.50;;;;;;5117073;27;19927;-61
2023/04/02 03:32:31;;;;;;;;;;;18.80;33.80;;;;;;5100497;28;19920;-61
2023/04/02 03:34:58;;;;;;;;;;;18.80;34.10;;;;;;5117464;28;19944;-61
2023/04/02 03:37:26;;;;;;;;;;;18.90;34.40;;;;;;5094454;28;19920;-61
2023/04/02 03:39:53;;;;;;;;;;;18.90;34.50;;;;;;5099617;28;19920;-61
2023/04/02 03:42:21;;;;;;;;;;;18.90;34.70;;;;;;5100082;28;19936;-61
2023/04/02 03:44:49;;;;;;;;;;;19.00;34.80;;;;;;5118333;28;19919;-61
2023/04/02 03:47:18;;;;;;;;;;;19.00;34.90;;;;;;5117735;28;19924;-61
2023/04/02 03:49:46;;;;;;;;;;;19.00;35.00;;;;;;5102046;28;19923;-61
2023/04/02 03:52:13;;;;;;;;;;;19.00;35.00;;;;;;5100966;28;19924;-61
2023/04/02 03:54:40;;;;;;;;;;;19.10;35.20;;;;;;5118778;27;19927;-61
2023/04/02 03:57:07;;;;;;;;;;;19.10;35.30;;;;;;5118751;27;19927;-61
2023/04/02 03:59:36;;;;;;;;;;;19.10;35.30;;;;;;5103836;27;19924;-61
2023/04/02 04:02:07;;;;;;;;;;;19.10;35.40;;;;;;5121770;27;19967;-61
2023/04/02 04:04:38;;;;;;;;;;;19.10;35.40;;;;;;5104883;27;19919;-61
2023/04/02 04:07:05;;;;;;;;;;;19.10;35.40;;;;;;5118380;27;19920;-60
2023/04/02 04:09:32;;;;;;;;;;;19.10;35.50;;;;;;5104055;27;19919;-61
2023/04/02 04:12:02;;;;;;;;;;;19.20;35.60;;;;;;5101880;28;19981;-61
2023/04/02 04:14:29;;;;;;;;;;;19.20;35.70;;;;;;5103281;28;19962;-61
2023/04/02 04:16:58;;;;;;;;;;;19.20;35.70;;;;;;5120313;27;19932;-61
2023/04/02 04:19:28;;;;;;;;;;;19.20;35.80;;;;;;5104019;27;19920;-61
2023/04/02 04:22:09;;;;;;;;;;;19.20;35.80;;;;;;5118411;27;20373;-61
2023/04/02 04:24:38;;;;;;;;;;;19.20;35.90;;;;;;5119489;27;19923;-61
2023/04/02 04:27:08;;;;;;;;;;;19.20;35.90;;;;;;5102339;27;20341;-61
2023/04/02 04:29:39;;;;;;;;;;;19.20;36.00;;;;;;5119353;27;19926;-61
2023/04/02 04:32:11;;;;;;;;;;;19.30;36.00;;;;;;5119697;27;19924;-61
2023/04/02 04:34:41;;;;;;;;;;;19.30;36.10;;;;;;5103520;27;20388;-61
2023/04/02 04:37:24;;;;;;;;;;;19.30;36.10;;;;;;5098290;27;19938;-61
2023/04/02 04:39:51;;;;;;;;;;;19.30;36.10;;;;;;5104304;27;19967;-61
2023/04/02 04:42:18;;;;;;;;;;;19.30;36.20;;;;;;5102638;27;19926;-61
2023/04/02 04:44:45;;;;;;;;;;;19.30;36.20;;;;;;5121655;27;19973;-61
2023/04/02 04:47:13;;;;;;;;;;;19.30;36.30;;;;;;5098868;27;19923;-61
2023/04/02 04:49:40;;;;;;;;;;;19.30;36.30;;;;;;5100036;27;19975;-61
2023/04/02 04:52:07;;;;;;;;;;;19.30;36.30;;;;;;5102440;27;19959;-61
2023/04/02 04:54:36;;;;;;;;;;;19.30;36.30;;;;;;5104314;27;19926;-61
2023/04/02 04:57:03;;;;;;;;;;;19.30;37.00;;;;;;5100617;27;20322;-61
2023/04/02 04:59:31;;;;;;;;;;;19.30;36.40;;;;;;5102852;27;20027;-61
2023/04/02 05:02:00;;;;;;;;;;;19.30;36.40;;;;;;5098559;27;19983;-61
2023/04/02 05:04:29;;;;;;;;;;;19.40;36.50;;;;;;5123002;27;19926;-61
2023/04/02 05:06:56;;;;;;;;;;;19.40;36.60;;;;;;5104528;27;19972;-61
2023/04/02 05:09:24;;;;;;;;;;;19.40;36.60;;;;;;5121317;27;19919;-61
2023/04/02 05:11:57;;;;;;;;;;;19.40;36.60;;;;;;5099394;27;20018;-61
2023/04/02 05:14:25;;;;;;;;;;;19.40;36.70;;;;;;5102877;27;19919;-60
2023/04/02 05:16:54;;;;;;;;;;;19.40;36.70;;;;;;5100029;27;20014;-61
2023/04/02 05:19:21;;;;;;;;;;;19.40;36.70;;;;;;5119896;27;20018;-61
2023/04/02 05:21:48;;;;;;;;;;;19.40;36.70;;;;;;5103807;27;19968;-61
2023/04/02 05:24:37;;;;;;;;;;;19.40;36.70;;;;;;5104452;27;19962;-61
2023/04/02 05:27:09;;;;;;;;;;;19.40;36.80;;;;;;5098662;27;19942;-61
2023/04/02 05:29:37;;;;;;;;;;;19.40;36.80;;;;;;5121175;27;20023;-61
2023/04/02 05:32:04;;;;;;;;;;;19.40;36.80;;;;;;5102354;27;20353;-61
2023/04/02 05:34:32;;;;;;;;;;;19.40;36.80;;;;;;5099832;27;19958;-61
2023/04/02 05:36:58;;;;;;;;;;;19.40;36.90;;;;;;5099518;27;19969;-61
2023/04/02 05:39:25;;;;;;;;;;;19.40;36.90;;;;;;5103233;27;19944;-61
2023/04/02 05:41:57;;;;;;;;;;;19.40;36.90;;;;;;5102672;27;19965;-61
2023/04/02 05:44:25;;;;;;;;;;;19.40;36.90;;;;;;5120969;27;20272;-61
2023/04/02 05:46:53;;;;;;;;;;;19.40;37.00;;;;;;5115623;27;19973;-61
2023/04/02 05:49:21;;;;;;;;;;;19.40;37.00;;;;;;5111797;27;20018;-61
2023/04/02 05:51:49;;;;;;;;;;;19.40;37.00;;;;;;5117339;27;19924;-61
2023/04/02 05:54:17;;;;;;;;;;;19.40;37.00;;;;;;5100214;27;19989;-61
2023/04/02 05:56:44;;;;;;;;;;;19.40;37.00;;;;;;5115680;27;19966;-61
2023/04/02 05:59:11;;;;;;;;;;;19.40;37.00;;;;;;5100058;28;19936;-61
2023/04/02 06:01:40;;;;;;;;;;;19.40;37.00;;;;;;5102331;27;19920;-61
2023/04/02 06:04:11;;;;;;;;;;;19.50;37.10;;;;;;5103876;27;20253;-61
2023/04/02 06:06:43;;;;;;;;;;;19.50;37.10;;;;;;5093228;27;19920;-61
2023/04/02 06:09:11;;;;;;;;;;;19.50;37.20;;;;;;5109637;27;19982;-61
2023/04/02 06:11:41;;;;;;;;;;;19.50;37.20;;;;;;5092741;28;19920;-61
2023/04/02 06:14:08;;;;;;;;;;;19.50;37.20;;;;;;5108923;27;20026;-61
2023/04/02 06:16:37;;;;;;;;;;;19.50;37.20;;;;;;5091480;28;19981;-61
2023/04/02 06:19:05;;;;;;;;;;;19.40;37.10;;;;;;5092388;28;20539;-61
2023/04/02 06:21:32;;;;;;;;;;;19.50;37.20;;;;;;5097078;27;19981;-61
2023/04/02 06:24:00;;;;;;;;;;;19.40;37.10;;;;;;5102043;27;20141;-60
2023/04/02 06:26:28;;;;;;;;;;;19.40;37.10;;;;;;5121671;27;19919;-61
2023/04/02 06:28:56;;;;;;;;;;;19.50;37.20;;;;;;5104038;27;20325;-61
2023/04/02 06:31:25;;;;;;;;;;;19.50;37.20;;;;;;5098161;28;19924;-61
2023/04/02 06:33:53;;;;;;;;;;;19.50;37.30;;;;;;5095309;28;19923;-61
2023/04/02 06:36:22;;;;;;;;;;;19.50;37.30;;;;;;5096424;27;19919;-61
2023/04/02 06:38:49;;;;;;;;;;;19.50;37.30;;;;;;5097054;27;19980;-61
2023/04/02 06:41:17;;;;;;;;;;;19.50;37.30;;;;;;5100664;27;19919;-61
2023/04/02 06:43:44;;;;;;;;;;;19.50;37.30;;;;;;5107122;27;19923;-61
2023/04/02 06:46:13;;;;;;;;;;;19.50;37.40;;;;;;5094428;27;19958;-61
2023/04/02 06:48:40;;;;;;;;;;;19.50;37.30;;;;;;5099643;27;19980;-61
2023/04/02 06:51:07;;;;;;;;;;;19.50;37.40;;;;;;5094816;28;19919;-61
2023/04/02 06:53:36;;;;;;;;;;;19.50;37.40;;;;;;5112643;27;19927;-61
2023/04/02 06:56:03;;;;;;;;;;;19.50;37.40;;;;;;5097204;27;19920;-61
2023/04/02 06:58:30;;;;;;;;;;;19.50;37.40;;;;;;5106779;27;19924;-61
2023/04/02 07:00:57;;;;;;;;;;;19.50;37.40;;;;;;5097154;28;19946;-61
2023/04/02 07:03:24;;;;;;;;;;;19.50;37.40;;;;;;5102634;27;20000;-61
2023/04/02 07:05:51;;;;;;;;;;;19.50;37.40;;;;;;5117013;27;19942;-61
2023/04/02 07:08:17;;;;;;;;;;;19.50;37.40;;;;;;5099967;27;19926;-61
2023/04/02 07:10:46;;;;;;;;;;;19.50;37.40;;;;;;5097881;28;19920;-61
2023/04/02 07:13:13;;;;;;;;;;;19.50;37.40;;;;;;5115848;27;20377;-61
2023/04/02 07:15:40;;;;;;;;;;;19.50;37.40;;;;;;5098231;27;19927;-61
2023/04/02 07:18:07;;;;;;;;;;;19.50;37.40;;;;;;5101680;27;19939;-61
2023/04/02 07:20:36;;;;;;;;;;;19.50;37.40;;;;;;5120805;27;19919;-61
2023/04/02 07:23:03;;;;;;;;;;;19.50;37.40;;;;;;5115070;27;19931;-61
2023/04/02 07:25:30;;;;;;;;;;;19.50;37.40;;;;;;5099381;27;19927;-61
2023/04/02 07:27:58;;;;;;;;;;;19.50;37.40;;;;;;5095722;27;19919;-61
2023/04/02 07:30:25;;;;;;;;;;;19.50;37.40;;;;;;5099187;28;19964;-61
2023/04/02 07:32:51;;;;;;;;;;;19.50;37.40;;;;;;5112166;27;19923;-61
2023/04/02 07:35:18;;;;;;;;;;;19.50;37.50;;;;;;5117557;27;19939;-61
2023/04/02 07:37:45;;;;;;;;;;;19.50;37.40;;;;;;5103327;27;19927;-61
2023/04/02 07:40:15;;;;;;;;;;;19.50;37.50;;;;;;5095775;28;22743;-60
2023/04/02 07:42:42;;;;;;;;;;;19.50;37.50;;;;;;5113841;28;19927;-60
2023/04/02 07:45:14;;;;;;;;;;;19.50;37.50;;;;;;5099984;28;19969;-61
2023/04/02 07:47:41;;;;;;;;;;;19.50;37.50;;;;;;5117028;28;19965;-61
2023/04/02 07:50:08;;;;;;;;;;;19.60;37.60;;;;;;5096200;28;19940;-61
2023/04/02 07:52:35;;;;;;;;;;;19.60;37.60;;;;;;5098274;28;19942;-61
2023/04/02 07:55:02;;;;;;;;;;;19.60;37.60;;;;;;5102334;28;19977;-61
2023/04/02 07:57:29;;;;;;;;;;;19.50;37.50;;;;;;5097986;28;19931;-61
2023/04/02 07:59:56;;;;;;;;;;;19.60;37.60;;;;;;5118662;28;19964;-61
2023/04/02 08:02:24;;;;;;;;;;;19.60;37.60;;;;;;5114010;28;19980;-61
2023/04/02 08:04:51;;;;;;;;;;;19.60;37.60;;;;;;5102803;28;19923;-61
2023/04/02 08:07:18;;;;;;;;;;;19.60;37.70;;;;;;5098061;28;19919;-61
2023/04/02 08:09:45;;;;;;;;;;;19.60;37.60;;;;;;5104079;28;19990;-61
2023/04/02 08:12:12;;;;;;;;;;;19.60;37.90;;;;;;5098913;28;20022;-61
2023/04/02 08:14:39;;;;;;;;;;;19.50;37.50;;;;;;5101494;28;19927;-61
2023/04/02 08:17:06;;;;;;;;;;;19.60;37.70;;;;;;5107567;28;20746;-61
2023/04/02 08:19:34;;;;;;;;;;;19.60;37.60;;;;;;5094990;28;19945;-61
2023/04/02 08:22:01;;;;;;;;;;;19.60;37.70;;;;;;5100180;28;19923;-61
2023/04/02 08:24:28;;;;;;;;;;;19.60;37.70;;;;;;5117125;28;19924;-61
2023/04/02 08:26:55;;;;;;;;;;;19.60;37.70;;;;;;5093772;28;19932;-61
2023/04/02 08:29:22;;;;;;;;;;;19.60;37.70;;;;;;5097627;28;19920;-61
2023/04/02 08:31:49;;;;;;;;;;;19.60;37.70;;;;;;5098524;28;19980;-61
2023/04/02 08:34:15;;;;;;;;;;;19.60;37.80;;;;;;5102077;28;19927;-61
2023/04/02 08:36:43;;;;;;;;;;;19.60;37.70;;;;;;5094379;28;20370;-61
2023/04/02 08:39:11;;;;;;;;;;;19.60;37.70;;;;;;5117344;27;19919;-61
2023/04/02 08:41:39;;;;;;;;;;;19.60;37.70;;;;;;5104627;27;19932;-61
2023/04/02 08:44:21;;;;;;;;;;;19.60;37.80;;;;;;5097487;28;19920;-61
2023/04/02 08:46:48;;;;;;;;;;;19.60;37.80;;;;;;5090390;27;19950;-61
2023/04/02 08:49:15;;;;;;;;;;;19.60;37.80;;;;;;5104174;27;19924;-61
2023/04/02 08:51:44;;;;;;;;;;;19.60;37.80;;;;;;5098553;27;20375;-60
2023/04/02 08:54:13;;;;;;;;;;;19.60;37.80;;;;;;5103109;27;19926;-61
2023/04/02 08:56:40;;;;;;;;;;;19.60;37.80;;;;;;5112349;28;19919;-61
2023/04/02 08:59:09;;;;;;;;;;;19.60;37.80;;;;;;5093806;28;19920;-61
2023/04/02 09:01:36;;;;;;;;;;;19.60;37.90;;;;;;5090807;28;20324;-61
2023/04/02 09:04:05;;;;;;;;;;;19.60;37.90;;;;;;5095551;28;20293;-61
2023/04/02 09:06:32;;;;;;;;;;;19.70;38.00;;;;;;5103683;28;19980;-61
2023/04/02 09:09:00;;;;;;;;;;;19.70;37.90;;;;;;5101339;27;19988;-61
2023/04/02 09:11:27;;;;;;;;;;;19.60;37.90;;;;;;5101078;28;19924;-61
2023/04/02 09:13:55;;;;;;;;;;;19.70;38.00;;;;;;5103926;28;19920;-61
2023/04/02 09:16:24;;;;;;;;;;;19.70;38.00;;;;;;5115844;27;19924;-61
2023/04/02 09:18:51;;;;;;;;;;;19.70;38.00;;;;;;5112649;27;19966;-60
2023/04/02 09:21:21;;;;;;;;;;;19.70;38.00;;;;;;5112067;28;19946;-61
2023/04/02 09:23:48;;;;;;;;;;;19.70;38.00;;;;;;5112525;28;19920;-61
2023/04/02 09:26:19;;;;;;;;;;;19.70;38.00;;;;;;5098158;28;19923;-61
2023/04/02 09:28:46;;;;;;;;;;;19.70;38.00;;;;;;5115450;27;19923;-61
2023/04/02 09:31:15;;;;;;;;;;;19.70;38.10;;;;;;5092741;28;19920;-61
2023/04/02 09:33:43;;;;;;;;;;;19.70;38.10;;;;;;5110407;28;19924;-61
2023/04/02 09:36:17;;;;;;;;;;;19.70;38.10;;;;;;5111122;28;19946;-61
2023/04/02 09:38:51;;;;;;;;;;;19.70;38.00;;;;;;5094361;28;19939;-60
2023/04/02 09:41:19;;;;;;;;;;;19.70;37.20;;;;;;5106019;28;19938;-61
2023/04/02 09:43:47;;;;;;;;;;;19.70;36.30;;;;;;5112883;27;19920;-61
2023/04/02 09:46:15;;;;;;;;;;;19.70;35.70;;;;;;5093397;28;19973;-61
2023/04/02 09:48:43;;;;;;;;;;;19.60;35.00;;;;;;5107889;27;19920;-61
2023/04/02 09:51:12;;;;;;;;;;;19.60;34.40;;;;;;5095471;28;20262;-61
2023/04/02 09:53:39;;;;;;;;;;;19.50;33.80;;;;;;5100385;28;20014;-61
2023/04/02 09:56:10;;;;;;;;;;;19.50;33.90;;;;;;5092679;28;19936;-61
2023/04/02 09:58:38;;;;;;;;;;;19.50;34.10;;;;;;5094080;28;19927;-61
2023/04/02 10:01:07;;;;;;;;;;;19.50;34.50;;;;;;5110899;28;19938;-61
2023/04/02 10:03:33;;;;;;;;;;;19.50;34.80;;;;;;5077689;28;20224;-61
2023/04/02 10:06:04;;;;;;;;;;;19.50;35.10;;;;;;5110901;28;19923;-61
2023/04/02 10:08:31;;;;;;;;;;;19.50;35.40;;;;;;5098988;28;20315;-61
2023/04/02 10:10:58;;;;;;;;;;;19.40;35.50;;;;;;5096068;28;19920;-61
2023/04/02 10:13:26;;;;;;;;;;;19.50;35.70;;;;;;5093326;27;19981;-61
2023/04/02 10:15:55;;;;;;;;;;;19.50;35.80;;;;;;5111285;28;20016;-61
2023/04/02 10:18:23;;;;;;;;;;;19.50;36.00;;;;;;5094085;27;19988;-61
2023/04/02 10:20:50;;;;;;;;;;;19.50;36.10;;;;;;5094776;28;19927;-61
2023/04/02 10:23:16;;;;;;;;;;;19.50;36.10;;;;;;5110634;27;19965;-61
2023/04/02 10:25:45;;;;;;;;;;;19.50;36.30;;;;;;5122847;27;19977;-61
2023/04/02 10:28:13;;;;;;;;;;;19.50;36.30;;;;;;5093150;28;20273;-61
2023/04/02 10:30:41;;;;;;;;;;;19.50;36.40;;;;;;5103886;28;19927;-61
2023/04/02 10:33:12;;;;;;;;;;;19.60;36.60;;;;;;5092845;28;19965;-61
2023/04/02 10:35:40;;;;;;;;;;;19.60;36.60;;;;;;5104586;28;19924;-61
2023/04/02 10:38:23;;;;;;;;;;;19.60;36.70;;;;;;5093083;28;19919;-61
2023/04/02 10:40:52;;;;;;;;;;;19.60;36.70;;;;;;5093834;28;19927;-61
2023/04/02 10:43:29;;;;;;;;;;;19.60;36.80;;;;;;5096992;27;19919;-59
2023/04/02 10:45:56;;;;;;;;;;;19.60;36.80;;;;;;5095918;27;19928;-60
2023/04/02 10:48:25;;;;;;;;;;;19.60;36.90;;;;;;5102085;28;19969;-60
2023/04/02 10:50:53;;;;;;;;;;;19.60;36.90;;;;;;5100125;27;19940;-60
2023/04/02 10:53:20;;;;;;;;;;;19.60;37.00;;;;;;5094871;28;19931;-60
2023/04/02 10:55:48;;;;;;;;;;;19.70;37.10;;;;;;5104384;27;19931;-60
2023/04/02 10:58:18;;;;;;;;;;;19.70;37.10;;;;;;5094697;27;19924;-59
2023/04/02 11:00:45;;;;;;;;;;;19.70;37.20;;;;;;5108169;28;20318;-59
2023/04/02 11:03:13;;;;;;;;;;;19.70;37.20;;;;;;5106248;28;20370;-61
2023/04/02 11:05:43;;;;;;;;;;;19.70;37.30;;;;;;5092685;28;19969;-60
2023/04/02 11:08:11;;;;;;;;;;;19.70;37.50;;;;;;5111631;28;19920;-61
2023/04/02 11:10:38;;;;;;;;;;;19.70;37.60;;;;;;5091574;28;19923;-59
2023/04/02 11:13:07;;;;;;;;;;;19.70;37.60;;;;;;5109746;27;20385;-59
2023/04/02 11:15:34;;;;;;;;;;;19.80;37.70;;;;;;5094298;28;19969;-59
2023/04/02 11:18:01;;;;;;;;;;;19.80;37.80;;;;;;5093486;28;20008;-59
2023/04/02 11:20:51;;;;;;;;;;;19.80;37.80;;;;;;5095360;28;20428;-59
2023/04/02 11:23:18;;;;;;;;;;;19.80;37.80;;;;;;5106596;28;19919;-59
2023/04/02 11:25:45;;;;;;;;;;;19.80;37.90;;;;;;5106945;28;19941;-59
2023/04/02 11:28:13;;;;;;;;;;;19.80;37.90;;;;;;5096827;28;20327;-58
2023/04/02 11:30:41;;;;;;;;;;;19.80;37.90;;;;;;5096918;28;19973;-60
2023/04/02 11:33:22;;;;;;;;;;;19.80;38.00;;;;;;5109126;28;20023;-59
2023/04/02 11:35:51;;;;;;;;;;;19.80;37.90;;;;;;5100494;28;19931;-60
2023/04/02 11:38:36;;;;;;;;;;;19.80;37.90;;;;;;5094295;28;20353;-60
2023/04/02 11:41:03;;;;;;;;;;;19.80;38.00;;;;;;5097171;28;19920;-60
2023/04/02 11:43:48;;;;;;;;;;;19.80;38.00;;;;;;5090807;28;19919;-60
2023/04/02 11:46:32;;;;;;;;;;;19.80;38.00;;;;;;5083072;28;20006;-61
2023/04/02 11:49:10;;;;;;;;;;;19.80;38.00;;;;;;5107865;28;19930;-61
2023/04/02 11:51:48;;;;;;;;;;;19.80;38.00;;;;;;5091153;28;19939;-61
2023/04/02 11:54:21;;;;;;;;;;;19.80;38.00;;;;;;5093511;28;19923;-61
2023/04/02 11:56:48;;;;;;;;;;;19.80;38.00;;;;;;5103029;28;20273;-61
2023/04/02 11:59:15;;;;;;;;;;;19.80;38.00;;;;;;5097857;28;19920;-60
2023/04/02 12:01:45;;;;;;;;;;;19.80;38.10;;;;;;5108679;28;19924;-61
2023/04/02 12:04:30;;;;;;;;;;;19.80;38.10;;;;;;5084565;28;19984;-61
2023/04/02 12:07:04;;;;;;;;;;;19.80;38.10;;;;;;5088604;28;19920;-60
2023/04/02 12:09:31;;;;;;;;;;;19.80;38.10;;;;;;5111534;28;19931;-60
2023/04/02 12:11:59;;;;;;;;;;;19.90;38.20;;;;;;5087557;28;20268;-61
2023/04/02 12:14:29;;;;;;;;;;;19.90;38.20;;;;;;5108414;28;19934;-61
2023/04/02 12:16:56;;;;;;;;;;;19.90;38.20;;;;;;5097130;28;20044;-61
2023/04/02 12:19:23;;;;;;;;;;;19.80;38.20;;;;;;5096798;27;19920;-59
2023/04/02 12:21:50;;;;;;;;;;;19.90;38.30;;;;;;5102237;27;19928;-60
2023/04/02 12:24:19;;;;;;;;;;;19.90;38.30;;;;;;5104384;27;20282;-60
2023/04/02 12:26:46;;;;;;;;;;;19.90;38.30;;;;;;5093421;28;19930;-60
2023/04/02 12:29:17;;;;;;;;;;;19.90;38.40;;;;;;5109278;28;20018;-60
2023/04/02 12:31:44;;;;;;;;;;;19.90;38.40;;;;;;5105732;27;20225;-60
2023/04/02 12:34:13;;;;;;;;;;;19.90;38.40;;;;;;5092180;28;19920;-61
2023/04/02 12:36:40;;;;;;;;;;;19.90;38.40;;;;;;5087880;28;19920;-60
2023/04/02 12:39:14;;;;;;;;;;;19.90;38.40;;;;;;5088273;28;19924;-60
2023/04/02 12:41:42;;;;;;;;;;;19.90;38.40;;;;;;5116274;27;20001;-61
2023/04/02 12:44:14;;;;;;;;;;;19.90;38.40;;;;;;5100677;27;19924;-61
2023/04/02 12:46:41;;;;;;;;;;;19.90;38.50;;;;;;5092757;28;20431;-61
2023/04/02 12:49:08;;;;;;;;;;;19.90;38.50;;;;;;5097493;28;19977;-60
2023/04/02 12:51:35;;;;;;;;;;;19.90;38.50;;;;;;5103461;27;19920;-60
2023/04/02 12:54:02;;;;;;;;;;;19.90;38.50;;;;;;5084123;28;19924;-60
2023/04/02 12:56:29;;;;;;;;;;;19.90;38.50;;;;;;5088034;28;19919;-59
2023/04/02 12:58:57;;;;;;;;;;;19.90;38.50;;;;;;5088327;28;19919;-60
2023/04/02 13:01:26;;;;;;;;;;;19.90;38.60;;;;;;5081277;28;19927;-60
2023/04/02 13:03:59;;;;;;;;;;;19.90;38.50;;;;;;5097417;28;19967;-60
2023/04/02 13:06:26;;;;;;;;;;;19.90;38.60;;;;;;5088342;28;20330;-60
2023/04/02 13:08:53;;;;;;;;;;;19.90;38.60;;;;;;5098356;28;19985;-60
2023/04/02 13:11:21;;;;;;;;;;;19.90;38.60;;;;;;5084569;28;19965;-60
2023/04/02 13:13:48;;;;;;;;;;;19.90;38.60;;;;;;5088418;28;19939;-59
2023/04/02 13:16:26;;;;;;;;;;;19.90;38.60;;;;;;5087123;28;19920;-60
2023/04/02 13:18:58;;;;;;;;;;;19.90;38.60;;;;;;5097163;28;19955;-60
2023/04/02 13:21:26;;;;;;;;;;;19.90;38.60;;;;;;5105818;27;20389;-59
2023/04/02 13:23:52;;;;;;;;;;;19.90;38.60;;;;;;5081675;28;20362;-60
2023/04/02 13:26:20;;;;;;;;;;;19.90;38.70;;;;;;5104089;27;19928;-60
2023/04/02 13:28:57;;;;;;;;;;;19.90;38.70;;;;;;5088443;28;20428;-60
2023/04/02 13:31:23;;;;;;;;;;;19.90;38.70;;;;;;5098629;27;19951;-60
2023/04/02 13:33:51;;;;;;;;;;;19.90;38.70;;;;;;5081324;27;20042;-60
2023/04/02 13:36:18;;;;;;;;;;;19.90;38.70;;;;;;5101178;27;19923;-60
2023/04/02 13:38:45;;;;;;;;;;;20.00;38.80;;;;;;5085668;28;19973;-60
2023/04/02 13:41:17;;;;;;;;;;;20.00;38.80;;;;;;5063715;28;19936;-60
2023/04/02 13:43:44;;;;;;;;;;;20.00;38.80;;;;;;5082046;28;19932;-60
2023/04/02 13:46:11;;;;;;;;;;;20.00;38.80;;;;;;5081001;27;19955;-60
2023/04/02 13:48:38;;;;;;;;;;;20.00;38.80;;;;;;5109116;27;19919;-60
2023/04/02 13:51:06;;;;;;;;;;;20.00;38.90;;;;;;5093286;28;19971;-60
2023/04/02 13:53:33;;;;;;;;;;;20.00;38.90;;;;;;5090713;28;19919;-60
2023/04/02 13:56:00;;;;;;;;;;;20.00;38.90;;;;;;5098760;27;19924;-60
2023/04/02 13:58:27;;;;;;;;;;;20.00;39.00;;;;;;5091571;28;20045;-60
2023/04/02 14:00:54;;;;;;;;;;;20.00;39.00;;;;;;5083237;28;19926;-60
2023/04/02 14:03:22;;;;;;;;;;;20.00;39.00;;;;;;5089471;28;20025;-60
2023/04/02 14:05:51;;;;;;;;;;;20.00;39.00;;;;;;5089382;28;20366;-60
2023/04/02 14:08:20;;;;;;;;;;;20.00;39.00;;;;;;5103120;28;20285;-60
2023/04/02 14:10:51;;;;;;;;;;;20.00;39.00;;;;;;5103438;27;19954;-59
2023/04/02 14:13:25;;;;;;;;;;;20.00;39.00;;;;;;5084580;28;19947;-60
2023/04/02 14:15:55;;;;;;;;;;;20.00;39.00;;;;;;5104392;27;20306;-59
2023/04/02 14:18:25;;;;;;;;;;;20.00;39.10;;;;;;5096249;28;19927;-60
2023/04/02 14:20:53;;;;;;;;;;;20.00;39.10;;;;;;5087822;28;19931;-59
2023/04/02 14:23:32;;;;;;;;;;;20.00;39.10;;;;;;5093417;28;20093;-60
2023/04/02 14:26:01;;;;;;;;;;;20.00;39.10;;;;;;5091855;28;20190;-60